Time;durP1;ratioP1;P1;durP2;ratioP2;P2;SDS_P1;SDS_P2;PMS_P1;PMS_P2;Temp;Humidity;BMP_temperature;BMP_pressure;BME280_temperature;BME280_humidity;BME280_pressure;Samples;Min_cycle;Max_cycle;Signal;HPM_P1;HPM_P2
2022/08/17 00:01:12;;;;;;;6.70;6.07;;;19.80;99.90;;;;;;5054401;28;20186;-87
2022/08/17 00:03:40;;;;;;;7.13;6.53;;;19.70;99.90;;;;;;5038077;28;20252;-87
2022/08/17 00:06:11;;;;;;;6.93;6.20;;;19.70;99.90;;;;;;5037567;28;20182;-87
2022/08/17 00:08:46;;;;;;;6.68;6.00;;;19.60;99.90;;;;;;5037587;28;20209;-87
2022/08/17 00:11:16;;;;;;;7.57;6.68;;;19.60;99.90;;;;;;5037648;28;20180;-87
2022/08/17 00:13:49;;;;;;;8.10;6.50;;;19.60;99.90;;;;;;5037175;28;20166;-87
2022/08/17 00:16:21;;;;;;;7.10;6.40;;;19.50;99.90;;;;;;5054344;28;20201;-87
2022/08/17 00:18:48;;;;;;;8.32;6.55;;;19.40;99.90;;;;;;5037434;28;20166;-87
2022/08/17 00:21:34;;;;;;;9.15;6.88;;;19.30;99.90;;;;;;5036399;28;20178;-88
2022/08/17 00:24:01;;;;;;;6.78;6.18;;;19.30;99.90;;;;;;5036901;28;20247;-87
2022/08/17 00:26:27;;;;;;;7.07;6.38;;;19.30;99.90;;;;;;5053918;28;20193;-87
2022/08/17 00:28:54;;;;;;;7.03;6.43;;;19.30;99.90;;;;;;5036926;28;20174;-87
2022/08/17 00:31:20;;;;;;;7.38;6.55;;;19.30;99.90;;;;;;5053288;28;20170;-87
2022/08/17 00:33:47;;;;;;;7.32;6.63;;;19.20;99.90;;;;;;5036949;28;20189;-88
2022/08/17 00:36:13;;;;;;;7.28;6.60;;;19.20;99.90;;;;;;5037126;28;20260;-87
2022/08/17 00:38:40;;;;;;;7.80;6.28;;;19.20;99.90;;;;;;5036744;28;20185;-87
2022/08/17 00:41:13;;;;;;;6.65;6.00;;;19.20;99.90;;;;;;5053635;28;20182;-87
2022/08/17 00:44:03;;;;;;;9.05;6.90;;;19.10;99.90;;;;;;5036219;28;20202;-87
2022/08/17 00:46:35;;;;;;;6.90;6.28;;;19.00;99.90;;;;;;5053767;28;20169;-87
2022/08/17 00:49:01;;;;;;;7.30;6.65;;;19.00;99.90;;;;;;5037061;28;20200;-87
2022/08/17 00:51:36;;;;;;;7.18;6.55;;;19.00;99.90;;;;;;5036848;28;20185;-87
2022/08/17 00:54:14;;;;;;;7.35;6.65;;;18.90;99.90;;;;;;5036736;28;20173;-87
2022/08/17 00:56:46;;;;;;;7.18;6.47;;;18.80;99.90;;;;;;5053286;28;20174;-87
2022/08/17 00:59:18;;;;;;;7.40;6.70;;;18.80;99.90;;;;;;5036748;28;20170;-87
2022/08/17 01:01:46;;;;;;;8.48;7.22;;;18.80;99.90;;;;;;5036621;28;20291;-87
2022/08/17 01:04:14;;;;;;;6.80;6.20;;;18.80;99.90;;;;;;5036600;28;20212;-87
2022/08/17 01:06:41;;;;;;;7.30;6.60;;;18.90;99.90;;;;;;5036343;28;20182;-87
2022/08/17 01:09:07;;;;;;;8.07;6.65;;;19.00;99.90;;;;;;5036496;28;20181;-87
2022/08/17 01:11:36;;;;;;;7.45;6.47;;;19.10;99.90;;;;;;5035361;28;20346;-87
2022/08/17 01:14:02;;;;;;;7.25;6.22;;;19.10;99.90;;;;;;5036101;28;20185;-87
2022/08/17 01:16:34;;;;;;;6.95;6.22;;;19.10;99.90;;;;;;5036372;28;20193;-87
2022/08/17 01:19:15;;;;;;;6.60;6.10;;;19.00;99.90;;;;;;5036011;28;20222;-87
2022/08/17 01:21:46;;;;;;;6.85;6.25;;;19.00;99.90;;;;;;5036083;28;20209;-87
2022/08/17 01:24:13;;;;;;;6.85;6.15;;;19.00;99.90;;;;;;5052434;28;20205;-87
2022/08/17 01:26:40;;;;;;;8.23;6.32;;;19.00;99.90;;;;;;5052560;28;20185;-87
2022/08/17 01:29:07;;;;;;;7.40;6.55;;;19.00;99.90;;;;;;5035901;28;20174;-87
2022/08/17 01:31:52;;;;;;;7.43;6.63;;;19.00;99.90;;;;;;5035500;28;20206;-87
2022/08/17 01:34:19;;;;;;;7.82;6.85;;;19.00;99.90;;;;;;5035860;28;20173;-87
2022/08/17 01:36:47;;;;;;;8.25;7.45;;;19.00;99.90;;;;;;5035666;28;20182;-87
2022/08/17 01:39:23;;;;;;;8.73;7.90;;;19.00;99.90;;;;;;5035976;28;20193;-87
2022/08/17 01:41:52;;;;;;;8.65;6.93;;;18.90;99.90;;;;;;5035374;28;20208;-87
2022/08/17 01:44:20;;;;;;;11.45;7.40;;;18.90;99.90;;;;;;5052372;28;20202;-87
2022/08/17 01:46:46;;;;;;;8.68;7.20;;;18.90;99.90;;;;;;5035687;28;20184;-87
2022/08/17 01:49:12;;;;;;;7.82;7.13;;;18.90;99.90;;;;;;5052603;28;20177;-87
2022/08/17 01:51:38;;;;;;;7.53;6.90;;;18.90;99.90;;;;;;5034885;28;20292;-87
2022/08/17 01:54:09;;;;;;;6.47;5.88;;;18.80;99.90;;;;;;5052218;28;20182;-87
2022/08/17 01:56:38;;;;;;;8.60;6.90;;;18.80;99.90;;;;;;5035559;28;20177;-87
2022/08/17 01:59:05;;;;;;;8.00;7.20;;;18.70;99.90;;;;;;5035454;28;20190;-87
2022/08/17 02:01:33;;;;;;;7.35;6.70;;;18.70;99.90;;;;;;5035034;28;20292;-87
2022/08/17 02:03:59;;;;;;;7.78;7.07;;;18.80;99.90;;;;;;5035272;28;20277;-87
2022/08/17 02:06:27;;;;;;;8.57;7.10;;;18.80;99.90;;;;;;5035761;28;20213;-87
2022/08/17 02:08:54;;;;;;;7.40;6.70;;;18.80;99.90;;;;;;5035800;28;20215;-87
2022/08/17 02:11:20;;;;;;;8.68;7.88;;;18.80;99.90;;;;;;5051373;28;20185;-87
2022/08/17 02:13:48;;;;;;;8.10;7.38;;;18.80;99.90;;;;;;5035803;28;20174;-87
2022/08/17 02:16:15;;;;;;;7.40;6.70;;;18.70;99.90;;;;;;5035220;28;20185;-87
2022/08/17 02:18:41;;;;;;;8.25;7.38;;;18.70;99.90;;;;;;5035118;28;20273;-87
2022/08/17 02:21:07;;;;;;;9.07;7.18;;;18.70;99.90;;;;;;5034963;28;20292;-87
2022/08/17 02:23:37;;;;;;;8.30;6.95;;;18.70;99.90;;;;;;5035207;28;20216;-86
2022/08/17 02:26:04;;;;;;;9.05;6.95;;;18.60;99.90;;;;;;5051621;28;20189;-87
2022/08/17 02:28:30;;;;;;;8.80;7.90;;;18.60;99.90;;;;;;5034944;28;20244;-87
2022/08/17 02:30:56;;;;;;;8.77;7.85;;;18.60;99.90;;;;;;5035197;28;20178;-87
2022/08/17 02:33:22;;;;;;;8.32;7.50;;;18.60;99.90;;;;;;5052001;28;20202;-87
2022/08/17 02:35:48;;;;;;;9.10;7.53;;;18.50;99.90;;;;;;5051806;28;20247;-86
2022/08/17 02:38:14;;;;;;;10.20;7.90;;;18.50;99.90;;;;;;5035268;28;20188;-87
2022/08/17 02:40:40;;;;;;;8.63;7.78;;;18.40;99.90;;;;;;5034574;28;20178;-87
2022/08/17 02:43:08;;;;;;;8.30;7.55;;;18.40;99.90;;;;;;5033874;28;20224;-87
2022/08/17 02:45:34;;;;;;;9.05;8.18;;;18.40;99.90;;;;;;5034863;28;20189;-87
2022/08/17 02:48:01;;;;;;;9.13;8.23;;;18.40;99.90;;;;;;5034794;28;20351;-87
2022/08/17 02:50:28;;;;;;;9.02;8.23;;;18.50;99.90;;;;;;5051166;28;20174;-87
2022/08/17 02:52:54;;;;;;;8.25;7.50;;;18.50;99.90;;;;;;5051227;28;20255;-87
2022/08/17 02:55:26;;;;;;;10.10;8.60;;;18.40;99.90;;;;;;5034640;28;20185;-87
2022/08/17 02:57:53;;;;;;;9.50;8.60;;;18.40;99.90;;;;;;5034461;28;20181;-87
2022/08/17 03:00:28;;;;;;;8.93;8.02;;;18.40;99.90;;;;;;5034499;28;20182;-87
2022/08/17 03:02:55;;;;;;;8.90;8.15;;;18.40;99.90;;;;;;5037911;28;20209;-87
2022/08/17 03:05:23;;;;;;;10.95;9.82;;;18.40;99.90;;;;;;5038868;28;20180;-86
2022/08/17 03:07:50;;;;;;;9.40;8.50;;;18.40;99.90;;;;;;5038676;28;20261;-87
2022/08/17 03:10:16;;;;;;;8.88;8.00;;;18.30;99.90;;;;;;5038415;28;20181;-87
2022/08/17 03:12:43;;;;;;;9.40;8.50;;;18.20;99.90;;;;;;5038475;28;20201;-87
2022/08/17 03:15:12;;;;;;;8.18;7.47;;;18.20;99.90;;;;;;5038504;28;20243;-87
2022/08/17 03:17:38;;;;;;;9.10;8.30;;;18.20;99.90;;;;;;5038362;28;20182;-87
2022/08/17 03:20:06;;;;;;;12.73;7.80;;;18.20;99.90;;;;;;5038396;28;20208;-87
2022/08/17 03:22:38;;;;;;;8.68;7.97;;;18.20;99.90;;;;;;5038217;28;20201;-87
2022/08/17 03:25:06;;;;;;;8.95;7.97;;;18.30;99.90;;;;;;5038446;28;20251;-86
2022/08/17 03:27:32;;;;;;;9.40;8.38;;;18.30;99.90;;;;;;5038397;28;20181;-87
2022/08/17 03:29:58;;;;;;;9.20;8.30;;;18.30;99.90;;;;;;5054771;28;20208;-87
2022/08/17 03:32:24;;;;;;;9.30;8.40;;;18.30;99.90;;;;;;5038022;28;20201;-87
2022/08/17 03:34:50;;;;;;;9.90;8.90;;;18.20;99.90;;;;;;5038148;28;20182;-87
2022/08/17 03:37:16;;;;;;;9.68;8.77;;;18.20;99.90;;;;;;5038202;28;20186;-87
2022/08/17 03:39:42;;;;;;;9.83;8.27;;;18.20;99.90;;;;;;5038195;28;20205;-87
2022/08/17 03:42:17;;;;;;;10.43;9.43;;;18.20;99.90;;;;;;5037733;28;20205;-86
2022/08/17 03:44:52;;;;;;;9.57;8.67;;;18.20;99.90;;;;;;5037764;28;20206;-87
2022/08/17 03:58:20;;;;;;;9.40;8.45;;;17.90;99.90;;;;;;5054318;28;20178;-87
2022/08/17 04:00:47;;;;;;;11.30;9.20;;;17.90;99.90;;;;;;5036646;28;20174;-86
2022/08/17 04:03:13;;;;;;;10.13;9.23;;;18.00;99.90;;;;;;5054414;28;20252;-87
2022/08/17 04:05:39;;;;;;;9.67;8.77;;;18.00;99.90;;;;;;5037886;28;20621;-87
2022/08/17 04:08:06;;;;;;;9.50;8.60;;;18.00;99.90;;;;;;5037172;28;20189;-87
2022/08/17 04:10:32;;;;;;;10.13;9.23;;;18.00;99.90;;;;;;5037139;28;20185;-87
2022/08/17 04:12:58;;;;;;;10.40;9.30;;;17.90;99.90;;;;;;5036539;28;20293;-86
2022/08/17 04:15:25;;;;;;;9.75;8.90;;;17.90;99.90;;;;;;5037398;28;20201;-87
2022/08/17 04:17:51;;;;;;;9.73;8.38;;;17.90;99.90;;;;;;5054315;28;20186;-87
2022/08/17 04:20:20;;;;;;;10.07;9.10;;;18.00;99.90;;;;;;5053234;28;20191;-87
2022/08/17 04:23:02;;;;;;;9.23;8.30;;;18.00;99.90;;;;;;5037210;28;20251;-87
2022/08/17 04:25:31;;;;;;;9.60;8.68;;;18.00;99.90;;;;;;5053201;28;20183;-87
2022/08/17 04:27:58;;;;;;;9.57;8.70;;;18.00;99.90;;;;;;5037130;28;20179;-87
2022/08/17 04:30:25;;;;;;;9.77;8.88;;;18.00;99.90;;;;;;5036960;28;20185;-88
2022/08/17 04:33:00;;;;;;;8.87;8.07;;;18.00;99.90;;;;;;5036945;28;20280;-87
2022/08/17 04:35:30;;;;;;;10.20;9.30;;;18.00;99.90;;;;;;5037362;28;20189;-88
2022/08/17 04:37:57;;;;;;;9.00;8.20;;;18.00;99.90;;;;;;5036619;28;20201;-87
2022/08/17 04:43:15;;;;;;;9.55;8.65;;;18.00;99.90;;;;;;5053535;28;20209;-87
2022/08/17 04:45:47;;;;;;;9.10;8.20;;;18.00;99.90;;;;;;5036884;28;20166;-87
2022/08/17 04:48:13;;;;;;;10.10;9.05;;;18.10;99.90;;;;;;5037079;28;20169;-87
2022/08/17 04:50:43;;;;;;;9.70;8.48;;;18.20;99.90;;;;;;5036842;28;20174;-87
2022/08/17 04:53:10;;;;;;;9.15;8.20;;;18.30;99.90;;;;;;5036686;28;20290;-88
2022/08/17 04:55:37;;;;;;;9.80;8.50;;;18.40;99.90;;;;;;5036020;28;20192;-87
2022/08/17 04:58:04;;;;;;;8.82;7.97;;;18.40;99.90;;;;;;5036757;28;20189;-87
2022/08/17 05:00:33;;;;;;;9.32;8.00;;;18.50;99.90;;;;;;5036168;28;20232;-87
2022/08/17 05:02:58;;;;;;;9.43;8.27;;;18.50;99.90;;;;;;5036597;28;20213;-87
2022/08/17 05:05:27;;;;;;;10.95;8.88;;;18.40;99.90;;;;;;5036537;28;20178;-87
2022/08/17 05:07:55;;;;;;;9.50;8.70;;;18.40;99.90;;;;;;5036208;28;20178;-87
2022/08/17 05:10:22;;;;;;;10.63;9.02;;;18.30;99.90;;;;;;5036277;28;20271;-87
2022/08/17 05:13:00;;;;;;;11.68;9.18;;;18.30;99.90;;;;;;5036165;28;20194;-87
2022/08/17 05:15:27;;;;;;;10.25;8.20;;;18.30;99.90;;;;;;5036346;28;20170;-87
2022/08/17 05:18:12;;;;;;;12.77;9.00;;;18.20;99.90;;;;;;5036045;28;20213;-87
2022/08/17 05:20:39;;;;;;;11.48;9.48;;;18.20;99.90;;;;;;5035727;28;20675;-87
2022/08/17 05:23:09;;;;;;;11.45;8.80;;;18.20;99.90;;;;;;5035164;28;20213;-87
2022/08/17 05:25:40;;;;;;;13.18;9.07;;;18.10;99.90;;;;;;5051539;28;20282;-87
2022/08/17 05:28:08;;;;;;;11.02;8.88;;;18.30;99.90;;;;;;5035997;28;20203;-87
2022/08/17 05:30:34;;;;;;;14.35;8.90;;;18.30;99.90;;;;;;5035851;28;20181;-87
2022/08/17 05:33:07;;;;;;;12.18;8.60;;;18.40;99.90;;;;;;5035657;28;20209;-87
2022/08/17 05:35:36;;;;;;;13.18;8.77;;;18.50;99.90;;;;;;5054219;28;20170;-90
2022/08/17 05:38:03;;;;;;;11.55;8.85;;;18.70;99.90;;;;;;5039053;28;20217;-87
2022/08/17 05:40:29;;;;;;;9.38;8.48;;;18.80;99.90;;;;;;5052303;28;20261;-88
2022/08/17 05:43:09;;;;;;;10.55;8.88;;;19.00;99.90;;;;;;5035886;28;20205;-87
2022/08/17 05:45:39;;;;;;;11.85;8.05;;;19.20;99.90;;;;;;5035667;28;20173;-87
2022/08/17 05:48:09;;;;;;;8.70;8.00;;;19.40;99.90;;;;;;5035757;28;20271;-88
2022/08/17 05:50:44;;;;;;;8.95;7.80;;;19.40;99.90;;;;;;5035871;28;20170;-88
2022/08/17 05:53:54;;;;;;;10.75;8.80;;;19.50;99.90;;;;;;5035356;28;20201;-87
2022/08/17 05:56:50;;;;;;;9.00;8.18;;;19.60;99.90;;;;;;5025791;28;20197;-88
2022/08/17 05:59:40;;;;;;;9.52;8.60;;;19.60;99.90;;;;;;5035449;28;20182;-87
2022/08/17 06:02:31;;;;;;;8.73;7.88;;;19.70;99.90;;;;;;5035158;28;20209;-87
2022/08/17 06:05:15;;;;;;;9.75;8.85;;;19.90;99.90;;;;;;5052082;28;20189;-87
2022/08/17 06:07:41;;;;;;;8.30;7.50;;;20.00;99.90;;;;;;5035254;28;20886;-87
2022/08/17 06:10:25;;;;;;;9.80;8.52;;;20.20;99.90;;;;;;5034911;28;20678;-88
2022/08/17 06:13:29;;;;;;;8.35;7.65;;;20.20;99.90;;;;;;5035191;28;20189;-87
2022/08/17 06:16:06;;;;;;;8.48;7.78;;;20.20;99.90;;;;;;5035241;28;20260;-87
2022/08/17 06:18:52;;;;;;;8.30;7.50;;;20.20;99.90;;;;;;5035178;28;20177;-87
2022/08/17 06:21:20;;;;;;;9.15;8.25;;;20.30;99.90;;;;;;5034680;28;20177;-87
2022/08/17 06:24:09;;;;;;;8.70;7.90;;;20.40;99.90;;;;;;5051475;28;20220;-87
2022/08/17 06:26:38;;;;;;;9.02;8.23;;;20.50;99.90;;;;;;5031821;28;20194;-87
2022/08/17 06:29:11;;;;;;;9.35;8.38;;;20.50;99.90;;;;;;5035061;28;20255;-87
2022/08/17 06:31:39;;;;;;;8.68;7.75;;;20.50;99.90;;;;;;5034583;28;20200;-88
2022/08/17 06:34:09;;;;;;;8.52;7.22;;;20.50;99.90;;;;;;5034951;28;20177;-87
2022/08/17 06:36:57;;;;;;;7.38;6.68;;;20.50;99.90;;;;;;5034732;28;20185;-88
2022/08/17 06:39:54;;;;;;;8.35;7.55;;;20.60;99.90;;;;;;5034932;28;20182;-87
2022/08/17 06:42:20;;;;;;;8.55;7.75;;;20.60;99.90;;;;;;5052925;28;20193;-87
2022/08/17 06:44:56;;;;;;;7.47;6.68;;;20.70;99.90;;;;;;5034759;28;20206;-88
2022/08/17 06:47:35;;;;;;;9.07;7.38;;;20.80;99.90;;;;;;5035210;28;20192;-87
2022/08/17 06:50:13;;;;;;;8.65;7.57;;;21.00;99.90;;;;;;5034521;28;20260;-88
2022/08/17 06:52:56;;;;;;;7.65;6.95;;;21.20;99.90;;;;;;5034543;28;20204;-87
2022/08/17 06:55:49;;;;;;;8.75;7.72;;;21.40;99.90;;;;;;5034986;28;20181;-87
2022/08/17 06:58:21;;;;;;;8.38;7.50;;;21.60;99.90;;;;;;5034736;28;20261;-88
2022/08/17 07:00:52;;;;;;;8.50;7.70;;;21.70;99.90;;;;;;5051056;28;20169;-88
2022/08/17 07:03:36;;;;;;;7.53;6.93;;;21.90;99.90;;;;;;5051207;28;20209;-87
2022/08/17 07:06:42;;;;;;;7.97;6.70;;;22.00;99.90;;;;;;5034797;28;20166;-87
2022/08/17 07:09:22;;;;;;;7.38;6.65;;;22.20;99.90;;;;;;5031527;28;20192;-88
2022/08/17 07:12:21;;;;;;;8.93;6.70;;;22.40;99.90;;;;;;5034187;28;20202;-88
2022/08/17 07:15:16;;;;;;;8.02;7.20;;;22.60;99.90;;;;;;5034607;28;20212;-88
2022/08/17 07:17:45;;;;;;;7.50;6.90;;;22.80;99.90;;;;;;5033037;28;20220;-88
2022/08/17 07:20:14;;;;;;;7.80;7.10;;;23.00;99.90;;;;;;5034112;28;20182;-88
2022/08/17 07:22:59;;;;;;;7.95;7.15;;;23.10;99.90;;;;;;5034162;28;20236;-88
2022/08/17 07:25:25;;;;;;;7.63;6.93;;;23.20;99.90;;;;;;5049624;28;20201;-88
2022/08/17 07:27:54;;;;;;;7.88;6.40;;;23.50;99.90;;;;;;5033517;28;20178;-88
2022/08/17 07:30:23;;;;;;;7.78;6.18;;;23.60;99.90;;;;;;5034392;28;20190;-88
2022/08/17 07:33:09;;;;;;;7.03;6.05;;;23.80;99.90;;;;;;5034414;28;20202;-88
2022/08/17 07:35:38;;;;;;;6.50;5.95;;;23.90;99.90;;;;;;5034367;28;20166;-88
2022/08/17 07:38:23;;;;;;;6.10;5.60;;;24.00;99.90;;;;;;5051097;28;20190;-88
2022/08/17 07:41:03;;;;;;;6.68;5.85;;;24.10;99.90;;;;;;5050942;28;20213;-88
2022/08/17 07:43:38;;;;;;;7.10;6.45;;;24.10;99.90;;;;;;5034005;28;20210;-87
2022/08/17 07:49:15;;;;;;;6.43;5.80;;;24.10;99.90;;;;;;5051946;28;20174;-87
2022/08/17 07:51:47;;;;;;;7.70;6.22;;;24.00;99.90;;;;;;5054076;28;20746;-88
2022/08/17 07:54:21;;;;;;;6.88;5.63;;;23.90;99.90;;;;;;5037745;28;20186;-88
2022/08/17 07:56:52;;;;;;;5.88;5.35;;;23.90;99.90;;;;;;5037293;28;20173;-88
2022/08/17 07:59:41;;;;;;;6.00;5.50;;;23.80;99.90;;;;;;5054643;28;20173;-88
2022/08/17 08:02:42;;;;;;;7.30;5.85;;;23.80;99.90;;;;;;5036915;28;20202;-87
2022/08/17 08:05:24;;;;;;;5.88;5.32;;;23.80;99.90;;;;;;5037559;28;20202;-88
2022/08/17 08:08:14;;;;;;;5.78;5.10;;;23.70;99.90;;;;;;5054092;28;20162;-88
2022/08/17 08:10:42;;;;;;;5.50;4.93;;;23.70;99.90;;;;;;5037275;28;20449;-88
2022/08/17 08:13:26;;;;;;;5.75;5.25;;;23.70;99.90;;;;;;5037734;28;20206;-88
2022/08/17 08:16:12;;;;;;;7.47;5.72;;;23.70;99.90;;;;;;5037632;28;20174;-88
2022/08/17 08:18:45;;;;;;;8.63;5.35;;;23.70;99.90;;;;;;5037384;28;20173;-88
2022/08/17 08:21:20;;;;;;;8.10;5.32;;;23.60;99.90;;;;;;5036971;28;20178;-88
2022/08/17 08:24:11;;;;;;;7.05;5.57;;;23.60;99.90;;;;;;5037448;28;20205;-87
2022/08/17 08:26:48;;;;;;;8.23;5.75;;;23.50;99.90;;;;;;5036975;28;20215;-88
2022/08/17 08:29:47;;;;;;;7.55;6.05;;;23.40;99.90;;;;;;5037387;28;20166;-88
2022/08/17 08:32:50;;;;;;;7.25;5.70;;;23.40;99.90;;;;;;5036976;28;20233;-87
2022/08/17 08:35:25;;;;;;;6.25;5.65;;;23.30;99.90;;;;;;5036617;28;20174;-87
2022/08/17 08:38:06;;;;;;;6.95;6.32;;;23.30;99.90;;;;;;5037145;28;20165;-88
2022/08/17 08:40:37;;;;;;;8.52;6.45;;;23.20;99.90;;;;;;5037069;28;20166;-88
2022/08/17 08:43:28;;;;;;;8.93;6.70;;;23.20;99.90;;;;;;5037308;28;20206;-87
2022/08/17 08:46:05;;;;;;;10.48;6.38;;;23.10;99.90;;;;;;5036927;28;20615;-87
2022/08/17 08:48:53;;;;;;;8.98;7.50;;;23.00;99.90;;;;;;5037253;28;20253;-87
2022/08/17 08:51:37;;;;;;;8.73;6.97;;;22.90;99.90;;;;;;5036452;28;20159;-87
2022/08/17 08:54:13;;;;;;;13.07;7.53;;;22.80;99.90;;;;;;5036569;28;20167;-87
2022/08/17 08:57:03;;;;;;;11.55;6.57;;;22.70;99.90;;;;;;5053333;28;20176;-87
2022/08/17 08:59:55;;;;;;;6.97;6.35;;;22.60;99.90;;;;;;5036298;28;20233;-87
2022/08/17 09:02:55;;;;;;;10.70;7.43;;;22.50;99.90;;;;;;5036265;28;20202;-87
2022/08/17 09:05:27;;;;;;;9.07;8.05;;;22.60;99.90;;;;;;5036505;28;20182;-87
2022/08/17 09:08:17;;;;;;;9.48;8.05;;;22.70;99.90;;;;;;5036530;28;20186;-87
2022/08/17 09:10:52;;;;;;;7.80;7.03;;;22.70;99.90;;;;;;5036180;28;20231;-87
2022/08/17 09:13:23;;;;;;;8.40;7.60;;;22.80;99.90;;;;;;5036276;28;20197;-87
2022/08/17 09:15:57;;;;;;;10.20;8.30;;;22.80;99.90;;;;;;5036568;28;20208;-87
2022/08/17 09:18:50;;;;;;;10.40;8.38;;;22.80;99.90;;;;;;5052784;28;20165;-88
2022/08/17 09:21:36;;;;;;;9.57;8.60;;;22.80;99.90;;;;;;5031566;28;20190;-87
2022/08/17 09:24:21;;;;;;;8.88;7.90;;;22.80;99.90;;;;;;5036093;28;20216;-88
2022/08/17 09:27:01;;;;;;;8.77;7.93;;;22.80;99.90;;;;;;5036301;28;20181;-87
2022/08/17 09:29:33;;;;;;;8.68;7.20;;;22.80;99.90;;;;;;5052761;28;20165;-87
2022/08/17 09:32:03;;;;;;;9.30;8.30;;;22.90;99.90;;;;;;5035606;28;20194;-87
2022/08/17 09:34:41;;;;;;;7.85;7.13;;;22.90;99.90;;;;;;5035916;28;20185;-88
2022/08/17 09:37:36;;;;;;;8.45;7.65;;;22.90;99.90;;;;;;5035853;28;20577;-87
2022/08/17 09:40:19;;;;;;;9.57;8.70;;;23.00;99.90;;;;;;5035631;28;20174;-88
2022/08/17 09:42:51;;;;;;;8.48;7.68;;;23.20;99.90;;;;;;5035747;28;20202;-87
2022/08/17 09:45:50;;;;;;;8.27;7.53;;;23.20;99.90;;;;;;5035564;28;20178;-88
2022/08/17 09:48:16;;;;;;;8.57;7.70;;;23.30;99.90;;;;;;5035727;28;20174;-87
2022/08/17 09:51:00;;;;;;;7.55;6.85;;;23.30;99.90;;;;;;5035258;28;20182;-88
2022/08/17 09:53:26;;;;;;;8.55;7.70;;;23.40;99.90;;;;;;5035606;28;20273;-88
2022/08/17 09:56:26;;;;;;;7.57;6.70;;;23.50;99.90;;;;;;5035734;28;20186;-88
2022/08/17 09:59:35;;;;;;;7.18;6.57;;;23.60;99.90;;;;;;5035612;28;20174;-88
2022/08/17 10:02:52;;;;;;;6.50;5.93;;;23.70;99.90;;;;;;5031662;28;20202;-88
2022/08/17 10:05:39;;;;;;;6.72;6.03;;;23.70;99.90;;;;;;5035225;28;20261;-88
2022/08/17 10:08:28;;;;;;;6.45;5.85;;;23.90;99.90;;;;;;5035283;28;20162;-88
2022/08/17 10:10:59;;;;;;;6.93;6.32;;;24.00;99.90;;;;;;5051156;28;20158;-88
2022/08/17 10:13:36;;;;;;;7.47;5.72;;;24.30;99.90;;;;;;5035200;28;20202;-88
2022/08/17 10:16:17;;;;;;;6.25;5.03;;;24.60;99.90;;;;;;5035178;28;20208;-88
2022/08/17 10:19:06;;;;;;;6.15;5.55;;;24.90;99.90;;;;;;5035425;28;20216;-88
2022/08/17 10:27:18;;;;;;;5.20;4.70;;;24.90;99.90;;;;;;5051882;28;20186;-88
2022/08/17 10:30:00;;;;;;;4.82;4.43;;;24.90;99.90;;;;;;5034994;28;20181;-88
2022/08/17 10:32:32;;;;;;;6.00;4.75;;;24.80;99.90;;;;;;5034862;28;20197;-88
2022/08/17 10:35:13;;;;;;;5.28;4.75;;;24.80;99.90;;;;;;5051706;28;20172;-88
2022/08/17 10:38:15;;;;;;;4.80;4.43;;;24.70;99.90;;;;;;5035099;28;20186;-88
2022/08/17 10:40:56;;;;;;;7.60;4.80;;;24.70;99.90;;;;;;5035055;28;20257;-88
2022/08/17 10:43:46;;;;;;;5.63;4.75;;;24.50;99.90;;;;;;5034709;28;20271;-88
2022/08/17 10:46:36;;;;;;;5.53;4.28;;;24.50;99.90;;;;;;5034708;28;20252;-88
2022/08/17 10:49:17;;;;;;;4.82;4.40;;;24.50;99.90;;;;;;5034714;28;20170;-88
2022/08/17 10:51:46;;;;;;;5.30;4.78;;;24.60;99.90;;;;;;5034288;28;20212;-88
2022/08/17 10:54:44;;;;;;;6.00;4.60;;;24.50;99.90;;;;;;5034923;28;20187;-88
2022/08/17 10:57:35;;;;;;;5.35;4.88;;;24.50;99.90;;;;;;5035022;28;20223;-88
2022/08/17 11:00:33;;;;;;;5.28;4.68;;;24.50;99.90;;;;;;5048897;28;20197;-88
2022/08/17 11:02:59;;;;;;;5.82;5.25;;;24.40;99.90;;;;;;5034342;28;20206;-88
2022/08/17 11:05:52;;;;;;;5.40;4.90;;;24.30;99.90;;;;;;5051187;28;20178;-88
2022/08/17 11:08:37;;;;;;;6.00;4.75;;;24.20;99.90;;;;;;5034863;28;20202;-88
2022/08/17 11:11:16;;;;;;;7.22;4.90;;;24.10;99.90;;;;;;5034296;28;20170;-88
2022/08/17 11:14:05;;;;;;;5.47;4.40;;;24.00;99.90;;;;;;5034524;28;20269;-88
2022/08/17 11:16:39;;;;;;;7.05;4.55;;;23.80;99.90;;;;;;5042553;28;20166;-90
2022/08/17 11:19:34;;;;;;;5.30;4.80;;;23.80;99.90;;;;;;5061621;28;20184;-88
2022/08/17 11:22:13;;;;;;;6.35;4.50;;;23.70;99.90;;;;;;5034519;28;20213;-88
2022/08/17 11:24:51;;;;;;;5.20;4.80;;;23.60;99.90;;;;;;5038179;28;20209;-88
2022/08/17 11:27:30;;;;;;;5.97;4.97;;;23.50;99.90;;;;;;5038118;28;20184;-88
2022/08/17 11:30:07;;;;;;;5.95;4.68;;;23.50;99.90;;;;;;5038305;28;20181;-89
2022/08/17 11:32:36;;;;;;;8.27;4.43;;;23.50;99.90;;;;;;5038386;28;20229;-88
2022/08/17 11:35:20;;;;;;;4.55;4.22;;;23.50;99.90;;;;;;5054752;28;20178;-88
2022/08/17 11:38:25;;;;;;;4.95;4.53;;;23.60;99.90;;;;;;5037898;28;20178;-88
2022/08/17 11:41:00;;;;;;;4.35;3.95;;;23.80;99.90;;;;;;5037919;28;20184;-88
2022/08/17 11:43:54;;;;;;;4.82;4.40;;;23.90;99.90;;;;;;5037794;28;20292;-88
2022/08/17 11:51:32;;;;;;;4.30;3.90;;;24.10;99.90;;;;;;5054516;28;20155;-88
2022/08/17 11:52:41;;;;;;;6.10;4.65;;;24.40;99.90;;;;;;5055564;28;20209;-88
2022/08/17 11:55:33;;;;;;;4.40;4.00;;;24.60;99.90;;;;;;5037766;28;20231;-87
2022/08/17 11:58:16;;;;;;;6.15;4.75;;;24.70;99.90;;;;;;5037265;28;20190;-88
2022/08/17 12:00:58;;;;;;;4.53;4.13;;;24.90;99.90;;;;;;5037207;28;20167;-88
2022/08/17 12:03:30;;;;;;;5.30;4.80;;;25.00;99.90;;;;;;5037683;28;20214;-88
2022/08/17 12:06:01;;;;;;;5.55;4.60;;;25.10;99.90;;;;;;5054156;28;20169;-88
2022/08/17 12:08:31;;;;;;;4.95;4.45;;;25.30;99.90;;;;;;5037603;28;20264;-88
2022/08/17 12:11:07;;;;;;;6.13;4.53;;;25.40;99.90;;;;;;5037403;28;20178;-88
2022/08/17 12:13:48;;;;;;;4.80;4.40;;;25.60;99.90;;;;;;5053213;28;20253;-88
2022/08/17 12:16:20;;;;;;;4.60;4.20;;;26.00;99.90;;;;;;5037531;28;20170;-88
2022/08/17 12:18:56;;;;;;;6.13;4.60;;;26.40;99.90;;;;;;5037079;28;20181;-88
2022/08/17 12:21:26;;;;;;;4.35;4.05;;;26.70;99.90;;;;;;5037012;28;20219;-88
2022/08/17 12:24:09;;;;;;;4.90;4.50;;;27.00;99.90;;;;;;5054107;28;20209;-88
2022/08/17 12:26:36;;;;;;;4.90;4.40;;;27.20;99.90;;;;;;5037328;28;20209;-88
2022/08/17 12:29:06;;;;;;;4.10;3.70;;;27.50;99.90;;;;;;5036508;28;20189;-88
2022/08/17 12:31:44;;;;;;;4.82;4.10;;;27.70;99.90;;;;;;5037203;28;20210;-88
2022/08/17 12:34:18;;;;;;;4.20;3.80;;;27.80;99.90;;;;;;5036357;28;20185;-88
2022/08/17 12:36:49;;;;;;;5.55;4.40;;;28.10;99.90;;;;;;5036860;28;20190;-88
2022/08/17 12:39:22;;;;;;;4.00;3.70;;;28.40;99.90;;;;;;5037285;28;20181;-88
2022/08/17 12:41:51;;;;;;;4.45;4.05;;;28.60;99.90;;;;;;5036749;28;20213;-88
2022/08/17 12:44:20;;;;;;;4.28;3.97;;;28.80;99.20;;;;;;5037070;28;20213;-88
2022/08/17 12:47:13;;;;;;;5.53;3.72;;;29.10;98.90;;;;;;5036730;28;20186;-88
2022/08/17 12:49:48;;;;;;;4.68;4.15;;;29.20;97.90;;;;;;5036990;28;20251;-88
2022/08/17 12:52:26;;;;;;;4.60;4.20;;;29.50;98.20;;;;;;5036289;28;20283;-88
2022/08/17 12:54:59;;;;;;;4.57;4.20;;;29.70;96.20;;;;;;5036555;28;20649;-89
2022/08/17 12:57:33;;;;;;;4.10;3.75;;;29.90;96.20;;;;;;5036531;28;20542;-88
2022/08/17 13:00:07;;;;;;;4.10;3.80;;;30.00;95.20;;;;;;5036377;28;20208;-89
2022/08/17 13:02:43;;;;;;;4.88;4.20;;;30.10;93.90;;;;;;5036602;28;20210;-88
2022/08/17 13:05:53;;;;;;;5.53;4.20;;;30.10;93.20;;;;;;5036287;28;20757;-88
2022/08/17 13:08:29;;;;;;;4.95;3.80;;;30.30;93.20;;;;;;5036375;28;20177;-88
2022/08/17 13:11:07;;;;;;;4.40;4.00;;;30.30;92.70;;;;;;5036517;28;20168;-89
2022/08/17 13:14:07;;;;;;;4.30;3.90;;;30.10;92.10;;;;;;5036088;28;20288;-88
2022/08/17 13:16:33;;;;;;;4.78;4.38;;;30.30;92.60;;;;;;5036201;28;20185;-89
2022/08/17 13:19:14;;;;;;;4.20;3.80;;;30.30;91.60;;;;;;5036648;28;20182;-88
2022/08/17 13:21:48;;;;;;;4.13;3.83;;;30.20;91.40;;;;;;5052427;28;20347;-88
2022/08/17 13:24:23;;;;;;;4.53;4.10;;;30.20;91.40;;;;;;5036062;28;20669;-88
2022/08/17 13:27:08;;;;;;;3.97;3.67;;;29.90;91.00;;;;;;5052526;28;20170;-88
2022/08/17 13:29:37;;;;;;;4.32;3.92;;;29.80;91.00;;;;;;5036142;28;20177;-88
2022/08/17 13:32:05;;;;;;;4.70;4.30;;;30.00;90.90;;;;;;5035419;28;20284;-88
2022/08/17 13:34:43;;;;;;;4.30;4.00;;;30.10;90.70;;;;;;5035976;28;20227;-89
2022/08/17 13:37:24;;;;;;;4.18;3.80;;;30.00;88.80;;;;;;5054692;28;20174;-89
2022/08/17 13:39:56;;;;;;;4.20;3.90;;;30.10;91.20;;;;;;5036088;28;20212;-89
2022/08/17 13:42:40;;;;;;;5.25;3.92;;;30.50;91.30;;;;;;5036130;28;20213;-88
2022/08/17 13:45:37;;;;;;;4.20;3.80;;;30.50;90.30;;;;;;5035827;28;20190;-88
2022/08/17 13:48:15;;;;;;;4.20;3.85;;;30.40;90.60;;;;;;5035480;28;20178;-88
2022/08/17 13:50:44;;;;;;;4.43;4.10;;;30.40;90.70;;;;;;5052117;28;20182;-89
2022/08/17 13:53:28;;;;;;;4.10;3.80;;;30.70;90.90;;;;;;5035677;28;20200;-89
2022/08/17 13:56:08;;;;;;;4.13;3.80;;;30.80;90.30;;;;;;5035647;28;20194;-89